Time;durP1;ratioP1;P1;durP2;ratioP2;P2;SDS_P1;SDS_P2;PMS_P1;PMS_P2;Temp;Humidity;BMP_temperature;BMP_pressure;BME280_temperature;BME280_humidity;BME280_pressure;Samples;Min_cycle;Max_cycle;Signal;HPM_P1;HPM_P2
2021/03/21 00:02:22;;;;;;;;;;;;;;;-0.82;62.30;96940.88;1799096;79;21648;-54
2021/03/21 00:04:49;;;;;;;;;;;;;;;-0.81;62.40;96939.16;1799460;79;21995;-54
2021/03/21 00:07:17;;;;;;;;;;;;;;;-0.81;62.33;96935.34;1793440;79;20214;-54
2021/03/21 00:09:44;;;;;;;;;;;;;;;-0.82;62.35;96937.05;1794741;79;20239;-54
2021/03/21 00:12:12;;;;;;;;;;;;;;;-0.82;62.24;96929.86;1796460;79;21268;-54
2021/03/21 00:14:40;;;;;;;;;;;;;;;-0.86;62.02;96930.33;1792766;79;20218;-53
2021/03/21 00:17:08;;;;;;;;;;;;;;;-0.94;62.01;96932.19;1792042;79;21422;-53
2021/03/21 00:19:36;;;;;;;;;;;;;;;-1.00;62.09;96929.33;1801064;79;20226;-54
2021/03/21 00:22:04;;;;;;;;;;;;;;;-1.05;62.26;96927.73;1802981;79;20233;-54
2021/03/21 00:24:32;;;;;;;;;;;;;;;-1.07;62.45;96921.83;1800730;79;20218;-53
2021/03/21 00:27:01;;;;;;;;;;;;;;;-1.11;62.46;96924.43;1795215;79;20575;-54
2021/03/21 00:29:29;;;;;;;;;;;;;;;-1.15;62.61;96923.27;1801726;79;21205;-53
2021/03/21 00:31:56;;;;;;;;;;;;;;;-1.16;62.70;96921.58;1811465;77;20211;-52
2021/03/21 00:34:24;;;;;;;;;;;;;;;-1.18;62.90;96911.86;1814125;77;20227;-52
2021/03/21 00:36:51;;;;;;;;;;;;;;;-1.22;62.90;96905.13;1812440;78;20524;-52
2021/03/21 00:39:18;;;;;;;;;;;;;;;-1.31;62.97;96903.16;1819401;78;20913;-52
2021/03/21 00:41:45;;;;;;;;;;;;;;;-1.48;63.22;96906.47;1817048;78;21258;-51
2021/03/21 00:44:13;;;;;;;;;;;;;;;-1.58;63.58;96899.83;1818614;78;20212;-53
2021/03/21 00:46:41;;;;;;;;;;;;;;;-1.62;63.73;96901.60;1816938;78;20248;-52
2021/03/21 00:49:09;;;;;;;;;;;;;;;-1.65;63.98;96897.83;1815937;78;20504;-53
2021/03/21 00:51:36;;;;;;;;;;;;;;;-1.70;63.95;96895.80;1827211;77;20220;-54
2021/03/21 00:54:04;;;;;;;;;;;;;;;-1.72;63.94;96890.73;1807446;77;21370;-52
2021/03/21 00:56:38;;;;;;;;;;;;;;;-1.68;63.91;96883.88;1783535;80;20227;-53
2021/03/21 00:59:05;;;;;;;;;;;;;;;-1.63;63.90;96883.37;1786283;80;20220;-53
2021/03/21 01:01:33;;;;;;;;;;;;;;;-1.61;63.87;96876.57;1790396;79;20225;-52
2021/03/21 01:04:02;;;;;;;;;;;;;;;-1.60;63.86;96872.31;1783793;80;20233;-53
2021/03/21 01:06:30;;;;;;;;;;;;;;;-1.63;63.81;96876.17;1834642;77;20516;-53
2021/03/21 01:09:00;;;;;;;;;;;;;;;-1.71;63.70;96873.34;1827939;77;20270;-53
2021/03/21 01:11:30;;;;;;;;;;;;;;;-1.93;62.78;96869.03;1819685;77;20241;-54
2021/03/21 01:13:57;;;;;;;;;;;;;;;-2.15;63.26;96863.47;1823765;77;20211;-52
2021/03/21 01:16:27;;;;;;;;;;;;;;;-2.24;63.54;96861.92;1787292;80;20218;-52
2021/03/21 01:18:56;;;;;;;;;;;;;;;-2.32;63.67;96861.20;1771702;80;21367;-53
2021/03/21 01:21:25;;;;;;;;;;;;;;;-2.43;64.03;96856.27;1775469;80;20242;-55
2021/03/21 01:23:54;;;;;;;;;;;;;;;-2.45;64.26;96855.86;1784806;78;20232;-54
2021/03/21 01:26:23;;;;;;;;;;;;;;;-2.41;64.41;96851.16;1786257;80;20514;-54
2021/03/21 01:28:52;;;;;;;;;;;;;;;-2.34;64.17;96853.17;1827227;77;20269;-53
2021/03/21 01:31:20;;;;;;;;;;;;;;;-2.29;64.10;96848.86;1788821;80;22754;-54
2021/03/21 01:33:48;;;;;;;;;;;;;;;-2.21;64.13;96844.50;1782965;80;20214;-53
2021/03/21 01:36:18;;;;;;;;;;;;;;;-2.06;63.88;96839.59;1789248;79;20494;-54
2021/03/21 01:38:46;;;;;;;;;;;;;;;-1.93;63.47;96838.52;1794339;79;20557;-54
2021/03/21 01:41:20;;;;;;;;;;;;;;;-1.80;63.13;96842.97;1780158;79;20228;-54
2021/03/21 01:43:47;;;;;;;;;;;;;;;-1.73;62.79;96833.11;1791685;79;22177;-53
2021/03/21 01:46:20;;;;;;;;;;;;;;;-1.72;62.44;96823.77;1784733;80;20225;-53
2021/03/21 01:48:51;;;;;;;;;;;;;;;-1.77;62.18;96824.28;1819161;77;20211;-53
2021/03/21 01:51:26;;;;;;;;;;;;;;;-1.92;62.29;96817.77;1833989;77;21186;-53
2021/03/21 01:53:56;;;;;;;;;;;;;;;-2.08;62.43;96822.26;1810045;77;20220;-52
2021/03/21 01:56:25;;;;;;;;;;;;;;;-2.23;62.75;96825.89;1773071;80;21254;-52
2021/03/21 01:58:56;;;;;;;;;;;;;;;-2.34;63.02;96822.68;1792546;80;20246;-53
2021/03/21 02:01:27;;;;;;;;;;;;;;;-2.41;63.10;96821.94;1807202;79;20232;-52
2021/03/21 02:03:55;;;;;;;;;;;;;;;-2.48;63.05;96816.11;1826434;77;20227;-53
2021/03/21 02:06:40;;;;;;;;;;;;;;;-2.48;62.73;96812.30;1818523;78;20224;-52
2021/03/21 02:09:26;;;;;;;;;;;;;;;-2.49;62.48;96807.23;1818412;78;21388;-54
2021/03/21 02:12:14;;;;;;;;;;;;;;;-2.48;61.96;96800.03;1816230;78;20230;-53
2021/03/21 02:14:58;;;;;;;;;;;;;;;-2.56;61.16;96801.86;1816890;78;20235;-53
2021/03/21 02:17:49;;;;;;;;;;;;;;;-2.70;61.30;96805.41;1820197;78;20551;-53
2021/03/21 02:20:46;;;;;;;;;;;;;;;-2.84;61.46;96801.81;1817420;78;20866;-54
2021/03/21 02:23:42;;;;;;;;;;;;;;;-2.86;61.80;96788.72;1822388;78;21196;-54
2021/03/21 02:26:31;;;;;;;;;;;;;;;-2.84;61.34;96782.77;1823532;78;20236;-53
2021/03/21 02:29:29;;;;;;;;;;;;;;;-2.90;61.25;96784.12;1710206;82;20220;-53
2021/03/21 02:32:00;;;;;;;;;;;;;;;-3.04;61.47;96782.22;1715305;82;20789;-53
2021/03/21 02:34:31;;;;;;;;;;;;;;;-3.16;61.83;96782.80;1692674;84;20520;-53
2021/03/21 02:37:02;;;;;;;;;;;;;;;-3.20;61.90;96779.87;1708389;82;22304;-55
2021/03/21 02:39:39;;;;;;;;;;;;;;;-3.25;61.82;96774.45;1677122;84;20222;-53
2021/03/21 02:42:09;;;;;;;;;;;;;;;-3.30;62.04;96778.31;1683323;84;20299;-54
2021/03/21 02:44:41;;;;;;;;;;;;;;;-3.28;62.13;96772.78;1711401;82;20521;-53
2021/03/21 02:47:11;;;;;;;;;;;;;;;-3.23;61.90;96770.19;1690039;83;20237;-53
2021/03/21 02:49:44;;;;;;;;;;;;;;;-3.21;61.81;96770.59;1668580;84;22312;-53
2021/03/21 02:52:20;;;;;;;;;;;;;;;-3.18;61.83;96770.97;1668398;85;20283;-53
2021/03/21 02:54:56;;;;;;;;;;;;;;;-3.14;61.56;96771.35;1746605;81;20238;-52
2021/03/21 02:57:24;;;;;;;;;;;;;;;-3.12;61.37;96763.28;1741435;81;20226;-53
2021/03/21 02:59:54;;;;;;;;;;;;;;;-3.09;61.18;96762.37;1739480;82;20258;-52
2021/03/21 03:02:34;;;;;;;;;;;;;;;-3.08;60.87;96763.63;1737174;81;21126;-51
2021/03/21 03:05:21;;;;;;;;;;;;;;;-3.11;60.85;96764.11;1733308;81;20242;-52
2021/03/21 03:08:09;;;;;;;;;;;;;;;-3.07;60.90;96768.30;1737288;81;20210;-51
2021/03/21 03:10:42;;;;;;;;;;;;;;;-3.07;60.50;96765.32;1735691;81;20218;-54
2021/03/21 03:13:13;;;;;;;;;;;;;;;-3.20;60.15;96766.35;1740456;81;20238;-53
2021/03/21 03:15:40;;;;;;;;;;;;;;;-3.27;60.26;96764.33;1737154;81;22042;-53
2021/03/21 03:18:24;;;;;;;;;;;;;;;-3.27;60.50;96757.98;1735174;81;20218;-54
2021/03/21 03:20:57;;;;;;;;;;;;;;;-3.24;60.48;96754.14;1741399;81;20216;-53
2021/03/21 03:23:49;;;;;;;;;;;;;;;-3.21;60.29;96745.22;1738845;81;20696;-53
2021/03/21 03:26:20;;;;;;;;;;;;;;;-3.20;60.04;96739.27;1735757;81;21549;-52
2021/03/21 03:29:03;;;;;;;;;;;;;;;-3.20;60.03;96738.44;1717656;82;21227;-53
2021/03/21 03:31:34;;;;;;;;;;;;;;;-3.32;59.66;96730.56;1721662;82;20617;-53
2021/03/21 03:34:01;;;;;;;;;;;;;;;-3.56;60.11;96741.41;1718037;82;20262;-52
2021/03/21 03:36:28;;;;;;;;;;;;;;;-3.74;60.33;96734.86;1730738;82;20840;-52
2021/03/21 03:38:55;;;;;;;;;;;;;;;-3.90;60.95;96732.95;1719513;83;20228;-53
2021/03/21 03:41:26;;;;;;;;;;;;;;;-3.93;61.25;96726.64;1714049;82;21208;-53
2021/03/21 03:44:00;;;;;;;;;;;;;;;-3.85;61.22;96737.95;1712043;83;20511;-52
2021/03/21 03:46:35;;;;;;;;;;;;;;;-3.74;61.19;96727.70;1710472;83;20256;-54
2021/03/21 03:49:32;;;;;;;;;;;;;;;-3.61;60.87;96723.32;1721758;83;20724;-54
2021/03/21 03:52:12;;;;;;;;;;;;;;;-3.53;59.96;96715.19;1717093;82;20223;-53
2021/03/21 03:54:53;;;;;;;;;;;;;;;-3.61;59.46;96717.81;1713574;83;21171;-53
2021/03/21 03:57:25;;;;;;;;;;;;;;;-3.77;58.96;96712.52;1711766;83;20239;-53
2021/03/21 04:00:00;;;;;;;;;;;;;;;-3.98;59.47;96702.19;1713277;83;20498;-52
2021/03/21 04:02:37;;;;;;;;;;;;;;;-4.12;59.39;96703.19;1720632;82;20554;-53
2021/03/21 04:05:10;;;;;;;;;;;;;;;-4.31;59.99;96699.16;1712965;83;20230;-53
2021/03/21 04:07:59;;;;;;;;;;;;;;;-4.41;60.45;96698.41;1720476;83;22245;-53
2021/03/21 04:10:37;;;;;;;;;;;;;;;-4.44;60.65;96698.47;1714791;82;20233;-54
2021/03/21 04:13:27;;;;;;;;;;;;;;;-4.47;60.72;96695.52;1722005;82;20222;-51
2021/03/21 04:15:55;;;;;;;;;;;;;;;-4.49;60.68;96690.05;1720395;83;20211;-51
2021/03/21 04:18:38;;;;;;;;;;;;;;;-4.54;60.51;96687.98;1714246;83;20239;-51
2021/03/21 04:21:18;;;;;;;;;;;;;;;-4.66;60.80;96685.14;1720872;83;21397;-51
2021/03/21 04:24:02;;;;;;;;;;;;;;;-4.74;61.01;96690.27;1708487;82;20247;-52
2021/03/21 04:26:42;;;;;;;;;;;;;;;-4.77;61.20;96683.13;1714674;82;20223;-53
2021/03/21 04:29:23;;;;;;;;;;;;;;;-4.82;61.21;96685.69;1732773;81;20300;-50
2021/03/21 04:31:51;;;;;;;;;;;;;;;-4.81;61.95;96686.12;1738759;81;20313;-51
2021/03/21 04:34:19;;;;;;;;;;;;;;;-4.64;61.66;96680.49;1735323;81;21215;-53
2021/03/21 04:36:46;;;;;;;;;;;;;;;-4.39;60.28;96685.73;1734088;81;20222;-52
2021/03/21 04:39:17;;;;;;;;;;;;;;;-4.17;59.88;96677.49;1738346;81;20230;-52
2021/03/21 04:41:49;;;;;;;;;;;;;;;-3.83;59.23;96674.55;1737682;81;20230;-53
2021/03/21 04:44:23;;;;;;;;;;;;;;;-3.52;58.21;96669.51;1735657;81;20498;-51
2021/03/21 04:46:54;;;;;;;;;;;;;;;-3.22;57.30;96664.85;1730810;81;22285;-51
2021/03/21 04:49:23;;;;;;;;;;;;;;;-2.97;56.44;96662.77;1736671;81;20277;-51
2021/03/21 04:51:53;;;;;;;;;;;;;;;-2.54;55.82;96669.28;1738054;81;20215;-52
2021/03/21 04:54:25;;;;;;;;;;;;;;;-2.15;54.35;96660.53;1731959;81;21032;-53
2021/03/21 04:57:11;;;;;;;;;;;;;;;-1.77;54.03;96657.66;1735289;81;20225;-52
2021/03/21 04:59:38;;;;;;;;;;;;;;;-1.12;52.71;96657.07;1744364;81;22881;-52
2021/03/21 05:02:23;;;;;;;;;;;;;;;-0.42;50.65;96653.23;1739576;81;20214;-52
2021/03/21 05:04:59;;;;;;;;;;;;;;;0.05;48.92;96646.90;1736567;82;20230;-52
2021/03/21 05:07:36;;;;;;;;;;;;;;;0.25;47.70;96639.98;1736725;82;20290;-54
2021/03/21 05:10:22;;;;;;;;;;;;;;;0.53;46.95;96635.72;1734472;82;20307;-54
2021/03/21 05:13:02;;;;;;;;;;;;;;;0.99;46.40;96634.75;1739485;81;21399;-56
2021/03/21 05:15:34;;;;;;;;;;;;;;;1.41;44.18;96635.50;1737008;82;20293;-53
2021/03/21 05:18:09;;;;;;;;;;;;;;;1.21;43.05;96627.22;1737501;82;20509;-54
2021/03/21 05:20:49;;;;;;;;;;;;;;;0.80;43.55;96613.22;1723305;82;20226;-56
2021/03/21 05:23:26;;;;;;;;;;;;;;;0.57;43.99;96617.77;1737857;82;20213;-51
2021/03/21 05:25:57;;;;;;;;;;;;;;;0.69;44.81;96611.84;1736662;81;21222;-52
2021/03/21 05:28:45;;;;;;;;;;;;;;;1.12;44.80;96612.20;1736304;82;20259;-51
2021/03/21 05:31:12;;;;;;;;;;;;;;;1.51;42.14;96604.52;1737285;81;20509;-51
2021/03/21 05:33:40;;;;;;;;;;;;;;;1.42;42.89;96602.67;1705145;82;21018;-52
2021/03/21 05:36:15;;;;;;;;;;;;;;;1.63;42.14;96603.66;1672433;84;20224;-52
2021/03/21 05:38:50;;;;;;;;;;;;;;;1.87;42.86;96598.55;1700801;82;21127;-52
2021/03/21 05:41:56;;;;;;;;;;;;;;;2.15;43.37;96600.12;1698812;83;20224;-52
2021/03/21 05:44:57;;;;;;;;;;;;;;;2.36;42.34;96600.59;1687918;83;20227;-52
2021/03/21 05:47:41;;;;;;;;;;;;;;;2.84;40.94;96606.45;1685514;85;20286;-52
2021/03/21 05:50:44;;;;;;;;;;;;;;;3.52;39.76;96599.02;1693162;82;20241;-57
2021/03/21 05:53:37;;;;;;;;;;;;;;;4.07;38.68;96589.39;1674654;84;21221;-55
2021/03/21 05:56:43;;;;;;;;;;;;;;;4.86;37.00;96586.61;1674149;84;20295;-54
2021/03/21 05:59:49;;;;;;;;;;;;;;;5.27;35.30;96583.31;1668712;84;20249;-53
2021/03/21 06:02:42;;;;;;;;;;;;;;;5.33;35.81;96586.87;1668084;84;20240;-54
2021/03/21 06:05:27;;;;;;;;;;;;;;;5.95;34.45;96581.63;1664412;84;20231;-55
2021/03/21 06:08:14;;;;;;;;;;;;;;;6.20;33.96;96583.77;1678485;84;21163;-56
2021/03/21 06:10:45;;;;;;;;;;;;;;;6.31;34.10;96593.52;1677059;84;20601;-56
2021/03/21 06:13:39;;;;;;;;;;;;;;;6.75;33.02;96591.09;1668394;84;20235;-55
2021/03/21 06:16:24;;;;;;;;;;;;;;;6.76;32.19;96593.20;1677217;83;20293;-56
2021/03/21 06:19:31;;;;;;;;;;;;;;;6.62;32.03;96581.91;1695965;83;20611;-56
2021/03/21 06:22:19;;;;;;;;;;;;;;;5.88;32.85;96581.12;1694703;83;21041;-59
2021/03/21 06:24:56;;;;;;;;;;;;;;;5.68;34.62;96579.11;1698821;83;20249;-55
2021/03/21 06:27:33;;;;;;;;;;;;;;;6.36;33.99;96577.34;1680250;84;20237;-53
2021/03/21 06:30:28;;;;;;;;;;;;;;;6.63;32.53;96573.27;1701416;83;20229;-54
2021/03/21 06:33:15;;;;;;;;;;;;;;;6.66;33.14;96580.02;1626818;87;21348;-53
2021/03/21 06:35:47;;;;;;;;;;;;;;;7.66;32.35;96563.98;1620965;87;21260;-52
2021/03/21 06:38:33;;;;;;;;;;;;;;;8.32;31.04;96556.56;1673522;83;20221;-54
2021/03/21 06:41:09;;;;;;;;;;;;;;;8.73;29.95;96553.64;1698660;83;20473;-54
2021/03/21 06:44:07;;;;;;;;;;;;;;;9.02;29.87;96548.71;1738726;81;20214;-53
2021/03/21 06:47:12;;;;;;;;;;;;;;;9.93;29.77;96543.14;1741144;81;20261;-53
2021/03/21 06:49:59;;;;;;;;;;;;;;;10.75;26.70;96541.35;1735130;81;21868;-52
2021/03/21 06:52:47;;;;;;;;;;;;;;;10.35;28.41;96541.13;1738975;81;20217;-51
2021/03/21 06:55:27;;;;;;;;;;;;;;;11.06;27.14;96541.25;1733653;81;20220;-53
2021/03/21 06:58:10;;;;;;;;;;;;;;;11.44;26.72;96529.78;1736695;81;20227;-53
2021/03/21 07:01:12;;;;;;;;;;;;;;;12.01;26.40;96524.69;1738421;81;20222;-54
2021/03/21 07:04:17;;;;;;;;;;;;;;;12.63;25.72;96524.13;1731333;81;22819;-53
2021/03/21 07:07:08;;;;;;;;;;;;;;;13.47;24.81;96519.52;1736355;81;20223;-54
2021/03/21 07:10:04;;;;;;;;;;;;;;;14.51;24.03;96520.20;1730403;81;20506;-53
2021/03/21 07:12:52;;;;;;;;;;;;;;;15.17;22.99;96502.27;1737216;81;20254;-53
2021/03/21 07:15:40;;;;;;;;;;;;;;;15.46;23.18;96496.52;1735337;81;20340;-56
2021/03/21 07:18:47;;;;;;;;;;;;;;;16.13;22.83;96495.63;1734191;81;21391;-67
2021/03/21 07:21:27;;;;;;;;;;;;;;;17.01;21.80;96495.91;1736879;81;20589;-57
2021/03/21 07:24:05;;;;;;;;;;;;;;;17.54;21.19;96496.80;1735305;81;20289;-53
2021/03/21 07:27:00;;;;;;;;;;;;;;;17.93;21.15;96501.66;1730929;81;20258;-54
2021/03/21 07:29:53;;;;;;;;;;;;;;;18.40;20.66;96495.10;1713781;81;20260;-54
2021/03/21 07:32:32;;;;;;;;;;;;;;;18.88;20.33;96497.55;1708143;83;21161;-55
2021/03/21 07:35:22;;;;;;;;;;;;;;;19.48;19.92;96489.81;1707552;83;20275;-62
2021/03/21 07:38:11;;;;;;;;;;;;;;;19.81;19.24;96477.12;1706046;83;20285;-57
2021/03/21 07:40:47;;;;;;;;;;;;;;;20.07;18.84;96474.23;1710425;83;20231;-53
2021/03/21 07:43:39;;;;;;;;;;;;;;;20.26;18.85;96469.03;1710855;83;20235;-53
2021/03/21 07:46:32;;;;;;;;;;;;;;;20.50;18.91;96463.33;1707063;83;21276;-53
2021/03/21 07:49:35;;;;;;;;;;;;;;;20.90;18.64;96458.30;1705633;83;20252;-56
2021/03/21 07:52:10;;;;;;;;;;;;;;;21.29;18.64;96453.37;1707817;83;20489;-59
2021/03/21 07:54:59;;;;;;;;;;;;;;;21.63;18.21;96444.68;1709057;83;20286;-57
2021/03/21 07:57:48;;;;;;;;;;;;;;;21.98;17.54;96445.75;1675318;84;20485;-55
2021/03/21 08:00:17;;;;;;;;;;;;;;;22.21;16.38;96444.82;1672608;84;21405;-54
2021/03/21 08:02:48;;;;;;;;;;;;;;;21.77;16.68;96445.16;1645704;86;20227;-53
2021/03/21 08:05:22;;;;;;;;;;;;;;;20.64;15.61;96435.42;1661178;85;20343;-54
2021/03/21 08:07:52;;;;;;;;;;;;;;;18.89;17.75;96428.70;1667069;84;20529;-54
2021/03/21 08:10:28;;;;;;;;;;;;;;;18.27;18.11;96427.77;1666919;85;21051;-54
2021/03/21 08:13:02;;;;;;;;;;;;;;;18.00;17.64;96419.16;1663131;85;23509;-54
2021/03/21 08:15:34;;;;;;;;;;;;;;;15.89;18.42;96407.17;1646080;86;20256;-54
2021/03/21 08:18:08;;;;;;;;;;;;;;;13.87;20.30;96423.57;1709551;83;20213;-55
2021/03/21 08:20:39;;;;;;;;;;;;;;;13.10;21.89;96415.72;1703946;83;20538;-54
2021/03/21 08:23:22;;;;;;;;;;;;;;;12.62;22.72;96408.41;1713928;83;20210;-54
2021/03/21 08:25:51;;;;;;;;;;;;;;;12.51;23.05;96404.07;1704754;82;21397;-55
2021/03/21 08:28:20;;;;;;;;;;;;;;;12.65;22.67;96406.38;1712662;83;20560;-55
2021/03/21 08:30:53;;;;;;;;;;;;;;;12.64;22.50;96392.19;1711334;82;20223;-54
2021/03/21 08:33:39;;;;;;;;;;;;;;;12.05;22.49;96395.58;1701349;83;20584;-54
2021/03/21 08:36:26;;;;;;;;;;;;;;;11.13;23.26;96395.73;1703338;82;20286;-54
2021/03/21 08:39:02;;;;;;;;;;;;;;;10.59;24.42;96392.44;1705153;83;21958;-54
2021/03/21 08:41:30;;;;;;;;;;;;;;;9.90;24.57;96387.40;1705535;83;20248;-54
2021/03/21 08:43:59;;;;;;;;;;;;;;;9.62;25.65;96386.38;1709081;83;20243;-56
2021/03/21 08:46:27;;;;;;;;;;;;;;;10.11;25.32;96379.01;1712895;82;20783;-55
2021/03/21 08:49:05;;;;;;;;;;;;;;;10.71;24.77;96375.13;1710940;83;20271;-55
2021/03/21 08:51:38;;;;;;;;;;;;;;;10.91;23.86;96377.55;1712775;83;21274;-54
2021/03/21 08:54:15;;;;;;;;;;;;;;;10.79;24.87;96368.44;1709436;82;20361;-55
2021/03/21 08:57:07;;;;;;;;;;;;;;;10.98;24.49;96366.56;1711489;82;20224;-53
2021/03/21 08:59:38;;;;;;;;;;;;;;;11.45;23.35;96356.09;1706277;83;20240;-55
2021/03/21 09:02:14;;;;;;;;;;;;;;;11.36;22.12;96363.28;1705759;83;20264;-54
2021/03/21 09:04:47;;;;;;;;;;;;;;;10.59;23.12;96362.59;1709620;82;21349;-54
2021/03/21 09:07:22;;;;;;;;;;;;;;;10.00;24.26;96361.66;1710229;83;20518;-55
2021/03/21 09:09:56;;;;;;;;;;;;;;;9.55;24.50;96354.42;1715561;83;20223;-55
2021/03/21 09:12:30;;;;;;;;;;;;;;;9.62;25.10;96348.38;1707729;83;20225;-55
2021/03/21 09:15:18;;;;;;;;;;;;;;;9.75;24.19;96340.09;1706574;83;20263;-55
2021/03/21 09:18:05;;;;;;;;;;;;;;;9.89;24.21;96333.08;1721393;82;22834;-54
2021/03/21 09:20:35;;;;;;;;;;;;;;;10.17;24.50;96336.27;1716231;82;20299;-54
2021/03/21 09:23:30;;;;;;;;;;;;;;;10.19;23.74;96321.42;1703354;83;20254;-54
2021/03/21 09:25:59;;;;;;;;;;;;;;;10.27;24.39;96315.20;1709123;82;20816;-55
2021/03/21 09:28:32;;;;;;;;;;;;;;;10.31;23.14;96296.72;1708062;82;20727;-54
2021/03/21 09:31:05;;;;;;;;;;;;;;;10.22;24.20;96316.84;1715895;83;21387;-55
2021/03/21 09:33:36;;;;;;;;;;;;;;;10.75;23.13;96306.02;1691391;83;20217;-55
2021/03/21 09:36:12;;;;;;;;;;;;;;;11.05;22.30;96316.30;1670918;84;20244;-54
2021/03/21 09:38:55;;;;;;;;;;;;;;;10.99;22.80;96302.03;1720835;82;20762;-54
2021/03/21 09:41:22;;;;;;;;;;;;;;;11.32;22.69;96295.16;1729780;82;20531;-56
2021/03/21 09:43:50;;;;;;;;;;;;;;;11.79;22.33;96281.48;1714566;83;22266;-55
2021/03/21 09:46:44;;;;;;;;;;;;;;;12.08;21.81;96279.62;1681034;83;20219;-54
2021/03/21 09:49:16;;;;;;;;;;;;;;;12.10;21.83;96286.81;1719109;83;20227;-55
2021/03/21 09:51:53;;;;;;;;;;;;;;;12.14;20.99;96280.91;1712590;83;20721;-55
2021/03/21 09:54:36;;;;;;;;;;;;;;;11.80;21.42;96274.50;1682942;83;20247;-54
2021/03/21 09:57:34;;;;;;;;;;;;;;;11.77;21.59;96263.05;1652837;85;22056;-54
2021/03/21 10:00:09;;;;;;;;;;;;;;;12.13;21.48;96263.64;1659732;85;20263;-55
2021/03/21 10:02:47;;;;;;;;;;;;;;;12.44;21.06;96265.02;1686684;84;20303;-56
2021/03/21 10:05:37;;;;;;;;;;;;;;;12.24;21.00;96271.39;1670301;85;20693;-54
2021/03/21 10:08:42;;;;;;;;;;;;;;;12.29;20.77;96260.61;1662511;85;20226;-55
2021/03/21 10:11:13;;;;;;;;;;;;;;;12.25;21.00;96265.70;1680374;84;21253;-55
2021/03/21 10:13:43;;;;;;;;;;;;;;;12.02;20.71;96261.91;1714950;83;20219;-56
2021/03/21 10:16:26;;;;;;;;;;;;;;;11.38;20.99;96254.43;1710573;83;20249;-56
2021/03/21 10:19:03;;;;;;;;;;;;;;;11.12;21.49;96245.25;1710396;83;20239;-54
2021/03/21 10:21:35;;;;;;;;;;;;;;;11.24;21.71;96257.28;1713620;83;20224;-54
2021/03/21 10:24:28;;;;;;;;;;;;;;;11.08;21.80;96253.75;1717895;83;21316;-54
2021/03/21 10:27:19;;;;;;;;;;;;;;;10.85;21.61;96240.81;1719687;83;20239;-53
2021/03/21 10:29:53;;;;;;;;;;;;;;;10.88;22.90;96241.03;1710949;83;20717;-55
2021/03/21 10:32:29;;;;;;;;;;;;;;;11.20;22.18;96241.58;1716044;83;20242;-55
2021/03/21 10:34:59;;;;;;;;;;;;;;;11.37;21.75;96233.29;1724911;81;20535;-54
2021/03/21 10:37:46;;;;;;;;;;;;;;;11.29;22.05;96226.58;1718912;82;21208;-55
2021/03/21 10:40:27;;;;;;;;;;;;;;;11.39;22.10;96216.28;1714692;83;20221;-55
2021/03/21 10:42:59;;;;;;;;;;;;;;;11.42;22.08;96219.45;1719902;83;20503;-55
2021/03/21 10:45:37;;;;;;;;;;;;;;;11.54;21.81;96220.23;1700229;83;20239;-54
2021/03/21 10:48:11;;;;;;;;;;;;;;;11.14;21.87;96212.22;1717692;83;21580;-54
2021/03/21 10:51:00;;;;;;;;;;;;;;;11.02;23.18;96208.34;1715752;83;21254;-54
2021/03/21 10:53:38;;;;;;;;;;;;;;;11.11;22.91;96195.09;1715668;83;21703;-55
2021/03/21 10:56:21;;;;;;;;;;;;;;;10.72;22.96;96199.04;1721632;82;20258;-54
2021/03/21 10:59:13;;;;;;;;;;;;;;;10.32;23.34;96199.03;1715127;83;20236;-53
2021/03/21 11:01:44;;;;;;;;;;;;;;;9.80;24.19;96191.22;1718194;82;20503;-54
2021/03/21 11:04:23;;;;;;;;;;;;;;;9.53;24.82;96187.95;1736507;82;22243;-55
2021/03/21 11:06:59;;;;;;;;;;;;;;;9.41;24.51;96184.97;1711086;83;20241;-53
2021/03/21 11:09:32;;;;;;;;;;;;;;;9.30;25.63;96179.26;1716041;83;20220;-54
2021/03/21 11:12:04;;;;;;;;;;;;;;;9.36;24.97;96173.64;1718070;83;20218;-55
2021/03/21 11:14:34;;;;;;;;;;;;;;;9.46;25.43;96160.86;1721686;83;20270;-54
2021/03/21 11:17:14;;;;;;;;;;;;;;;9.42;25.35;96157.30;1727105;82;21271;-55
2021/03/21 11:19:46;;;;;;;;;;;;;;;9.52;26.01;96153.95;1725295;82;20266;-55
2021/03/21 11:22:27;;;;;;;;;;;;;;;9.38;25.30;96149.75;1718795;83;20240;-54
2021/03/21 11:24:54;;;;;;;;;;;;;;;8.95;25.81;96151.55;1714593;82;20247;-55
2021/03/21 11:27:25;;;;;;;;;;;;;;;8.38;25.96;96149.48;1718393;83;20277;-55
2021/03/21 11:29:52;;;;;;;;;;;;;;;7.91;27.21;96142.27;1723154;82;21350;-53
2021/03/21 11:32:26;;;;;;;;;;;;;;;7.59;27.55;96137.95;1745031;81;20268;-55
2021/03/21 11:34:59;;;;;;;;;;;;;;;7.46;27.23;96132.75;1734125;81;20229;-55
2021/03/21 11:37:29;;;;;;;;;;;;;;;7.48;27.75;96132.66;1741839;81;20222;-54
2021/03/21 11:40:15;;;;;;;;;;;;;;;7.48;27.99;96131.36;1743953;81;20220;-55
2021/03/21 11:42:48;;;;;;;;;;;;;;;7.68;27.36;96130.05;1739079;81;22114;-54
2021/03/21 11:45:19;;;;;;;;;;;;;;;7.89;26.72;96140.27;1741596;81;20226;-54
2021/03/21 11:47:48;;;;;;;;;;;;;;;8.07;26.48;96125.73;1740752;81;20223;-54
2021/03/21 11:50:23;;;;;;;;;;;;;;;8.22;26.84;96118.23;1742611;81;20228;-54
2021/03/21 11:52:50;;;;;;;;;;;;;;;8.41;27.62;96110.02;1735967;81;20925;-55
2021/03/21 11:55:20;;;;;;;;;;;;;;;8.84;27.59;96109.61;1743053;81;21463;-54
2021/03/21 11:58:07;;;;;;;;;;;;;;;9.34;25.22;96103.03;1739979;81;20596;-55
2021/03/21 12:00:38;;;;;;;;;;;;;;;9.14;24.91;96102.34;1731107;81;20518;-54
2021/03/21 12:03:10;;;;;;;;;;;;;;;8.63;25.87;96097.76;1723274;82;20711;-54
2021/03/21 12:05:42;;;;;;;;;;;;;;;8.52;25.88;96102.86;1737329;81;20231;-55
2021/03/21 12:08:25;;;;;;;;;;;;;;;8.75;26.24;96092.63;1739838;81;21203;-54
2021/03/21 12:10:55;;;;;;;;;;;;;;;8.86;26.00;96102.22;1734144;81;20222;-54
2021/03/21 12:13:37;;;;;;;;;;;;;;;8.88;25.17;96075.77;1721282;81;20247;-54
2021/03/21 12:16:08;;;;;;;;;;;;;;;8.66;25.54;96083.29;1742085;81;20277;-54
2021/03/21 12:18:35;;;;;;;;;;;;;;;8.57;26.48;96084.41;1738789;81;20273;-54
2021/03/21 12:21:12;;;;;;;;;;;;;;;8.72;26.80;96074.77;1740270;81;21300;-54
2021/03/21 12:23:56;;;;;;;;;;;;;;;8.97;25.89;96060.41;1740122;81;20223;-55
2021/03/21 12:26:44;;;;;;;;;;;;;;;9.22;26.19;96054.73;1664899;84;20513;-55
2021/03/21 12:29:27;;;;;;;;;;;;;;;9.30;26.02;96052.40;1682258;84;20342;-55
2021/03/21 12:31:56;;;;;;;;;;;;;;;9.22;25.58;96043.08;1692596;82;20221;-54
2021/03/21 12:34:34;;;;;;;;;;;;;;;9.19;25.96;96052.36;1652432;87;21380;-54
2021/03/21 12:37:10;;;;;;;;;;;;;;;9.27;26.13;96047.92;1652987;85;20274;-53
2021/03/21 12:39:39;;;;;;;;;;;;;;;9.26;25.81;96038.05;1675734;85;20517;-55
2021/03/21 12:42:29;;;;;;;;;;;;;;;9.05;25.54;96039.63;1676872;85;20213;-54
2021/03/21 12:45:10;;;;;;;;;;;;;;;8.82;25.56;96029.19;1675433;85;20293;-54
2021/03/21 12:47:43;;;;;;;;;;;;;;;8.66;26.34;96035.45;1676971;85;21225;-56
2021/03/21 12:50:30;;;;;;;;;;;;;;;8.59;25.84;96030.36;1677192;85;20485;-56
2021/03/21 12:52:57;;;;;;;;;;;;;;;8.41;26.66;96022.60;1673925;84;20782;-53
2021/03/21 12:55:25;;;;;;;;;;;;;;;8.43;27.29;96018.17;1681436;84;20216;-55
2021/03/21 12:57:53;;;;;;;;;;;;;;;8.59;27.55;96013.56;1711158;82;20254;-56
2021/03/21 13:00:27;;;;;;;;;;;;;;;8.81;26.71;96020.58;1714287;83;21212;-56
2021/03/21 13:02:56;;;;;;;;;;;;;;;8.87;26.76;96013.34;1712961;83;20222;-55
2021/03/21 13:05:33;;;;;;;;;;;;;;;8.92;26.68;96013.34;1712099;83;20222;-54
2021/03/21 13:08:03;;;;;;;;;;;;;;;9.09;25.78;95991.39;1705739;83;20302;-55
2021/03/21 13:10:34;;;;;;;;;;;;;;;8.90;26.50;96006.62;1714618;83;20218;-54
2021/03/21 13:13:03;;;;;;;;;;;;;;;8.78;26.84;96003.17;1716194;82;22279;-54
2021/03/21 13:15:32;;;;;;;;;;;;;;;8.75;26.56;95995.62;1706850;83;20231;-55
2021/03/21 13:18:00;;;;;;;;;;;;;;;8.75;27.09;95999.51;1714754;82;20231;-54
2021/03/21 13:20:30;;;;;;;;;;;;;;;8.75;27.37;96002.09;1704968;83;20223;-55
2021/03/21 13:22:57;;;;;;;;;;;;;;;8.62;27.09;95993.94;1704391;83;20326;-54
2021/03/21 13:25:31;;;;;;;;;;;;;;;8.50;27.89;95987.05;1711980;82;20220;-54
2021/03/21 13:28:01;;;;;;;;;;;;;;;8.53;27.54;95986.02;1712145;82;20235;-56
2021/03/21 13:30:30;;;;;;;;;;;;;;;8.38;27.39;95978.87;1715637;82;20294;-54
2021/03/21 13:32:58;;;;;;;;;;;;;;;8.33;26.68;95964.98;1746625;81;20277;-56
2021/03/21 13:35:27;;;;;;;;;;;;;;;8.19;27.75;95972.43;1745676;81;20226;-53
2021/03/21 13:37:54;;;;;;;;;;;;;;;8.17;27.90;95971.69;1745896;81;21271;-55
2021/03/21 13:40:25;;;;;;;;;;;;;;;8.23;27.26;95964.80;1741391;81;20273;-56
2021/03/21 13:42:55;;;;;;;;;;;;;;;8.28;27.68;95958.84;1738881;81;20278;-55